Time;durP1;ratioP1;P1;durP2;ratioP2;P2;SDS_P1;SDS_P2;PMS_P1;PMS_P2;Temp;Humidity;BMP_temperature;BMP_pressure;BME280_temperature;BME280_humidity;BME280_pressure;Samples;Min_cycle;Max_cycle;Signal;HPM_P1;HPM_P2
2023/04/30 00:02:11;;;;;;;1999.90;999.90;;;;;;;11.87;100.00;97828.19;5046179;28;20029;-85
2023/04/30 00:04:36;;;;;;;1999.90;999.90;;;;;;;11.76;100.00;97828.41;5028515;28;20021;-85
2023/04/30 00:07:02;;;;;;;1999.90;999.90;;;;;;;11.64;100.00;97830.81;5045616;28;20029;-85
2023/04/30 00:09:28;;;;;;;1999.90;999.90;;;;;;;11.73;100.00;97828.19;5030346;28;20029;-85
2023/04/30 00:11:53;;;;;;;1999.90;999.90;;;;;;;11.67;100.00;97824.72;5029428;28;20025;-87
2023/04/30 00:14:18;;;;;;;1999.90;999.90;;;;;;;11.63;100.00;97836.59;5030589;28;20021;-83
2023/04/30 00:16:44;;;;;;;1999.90;999.90;;;;;;;11.56;100.00;97828.78;5042022;28;20026;-84
2023/04/30 00:19:09;;;;;;;1999.90;999.90;;;;;;;11.56;100.00;97828.00;5040714;28;20394;-86
2023/04/30 00:21:35;;;;;;;1999.90;999.90;;;;;;;11.50;100.00;97824.53;5040667;28;20030;-85
2023/04/30 00:24:00;;;;;;;1999.90;999.90;;;;;;;11.51;100.00;97812.47;5040997;28;20048;-87
2023/04/30 00:26:25;;;;;;;1999.90;999.90;;;;;;;11.55;100.00;97812.66;5040587;28;20061;-85
2023/04/30 00:28:51;;;;;;;1999.90;999.90;;;;;;;11.46;100.00;97818.03;5039100;28;20061;-83
2023/04/30 00:31:16;;;;;;;1999.90;999.90;;;;;;;11.39;100.00;97817.63;5037933;28;20053;-82
2023/04/30 00:33:41;;;;;;;1999.90;999.90;;;;;;;11.28;100.00;97814.25;5036893;28;20068;-85
2023/04/30 00:36:07;;;;;;;1999.90;999.90;;;;;;;11.24;100.00;97821.44;5034270;28;20029;-85
2023/04/30 00:38:32;;;;;;;1999.90;999.90;;;;;;;11.25;100.00;97817.63;5038128;28;20056;-85
2023/04/30 00:40:57;;;;;;;1999.90;999.90;;;;;;;11.28;100.00;97827.13;5037190;28;20029;-84
2023/04/30 00:43:23;;;;;;;1999.90;999.90;;;;;;;11.40;100.00;97840.34;4998965;28;20030;-83
2023/04/30 00:45:48;;;;;;;1999.90;999.90;;;;;;;11.43;100.00;97840.56;5013288;28;20030;-85
2023/04/30 00:48:15;;;;;;;1999.90;999.90;;;;;;;11.37;100.00;97838.22;5016068;28;20033;-86
2023/04/30 00:50:42;;;;;;;1999.90;999.90;;;;;;;11.31;100.00;97831.22;5034032;28;20489;-87
2023/04/30 00:53:07;;;;;;;1999.90;999.90;;;;;;;11.27;100.00;97833.75;5039451;28;20160;-85
2023/04/30 00:55:33;;;;;;;1999.90;999.90;;;;;;;11.12;100.00;97818.41;5038081;28;20048;-86
2023/04/30 00:57:59;;;;;;;1999.90;999.90;;;;;;;11.12;100.00;97831.31;5036358;28;20077;-84
2023/04/30 01:00:26;;;;;;;1999.90;999.90;;;;;;;11.02;100.00;97829.56;5035573;28;20112;-84
2023/04/30 01:02:52;;;;;;;1999.90;999.90;;;;;;;10.94;100.00;97824.75;5036128;28;20030;-87
2023/04/30 01:05:17;;;;;;;1999.90;999.90;;;;;;;10.99;100.00;97824.69;5036338;28;20025;-84
2023/04/30 01:07:45;;;;;;;1999.90;999.90;;;;;;;11.02;100.00;97817.78;5037401;28;20030;-85
2023/04/30 01:10:14;;;;;;;1999.90;999.90;;;;;;;11.21;100.00;97826.75;5037520;28;20029;-85
2023/04/30 01:12:56;;;;;;;1999.90;999.90;;;;;;;11.18;100.00;97835.56;5018674;28;20099;-85
2023/04/30 01:15:29;;;;;;;1999.90;999.90;;;;;;;11.25;100.00;97828.56;5037595;28;20025;-84
2023/04/30 01:18:03;;;;;;;1999.90;999.90;;;;;;;11.31;100.00;97837.50;5020797;28;20022;-85
2023/04/30 01:20:30;;;;;;;1999.90;999.90;;;;;;;11.25;100.00;97839.50;5038044;28;20040;-81
2023/04/30 01:23:22;;;;;;;1999.90;999.90;;;;;;;11.19;100.00;97838.00;5038759;28;20036;-83
2023/04/30 01:26:02;;;;;;;1999.90;999.90;;;;;;;11.27;100.00;97837.31;5037737;28;20072;-84
2023/04/30 01:28:28;;;;;;;1999.90;999.90;;;;;;;11.10;100.00;97838.97;5036144;28;20491;-85
2023/04/30 01:30:53;;;;;;;1999.90;999.90;;;;;;;11.14;100.00;97849.03;5036182;28;20072;-86
2023/04/30 01:33:18;;;;;;;1999.90;999.90;;;;;;;11.22;100.00;97839.31;5036098;28;20036;-85
2023/04/30 01:36:22;;;;;;;1999.90;999.90;;;;;;;11.25;100.00;97845.00;5036440;28;20030;-86
2023/04/30 01:39:19;;;;;;;1999.90;999.90;;;;;;;11.18;100.00;97839.09;5032930;28;20124;-85
2023/04/30 01:42:43;;;;;;;1999.90;999.90;;;;;;;11.14;100.00;97840.00;5034188;28;20096;-84
2023/04/30 01:45:36;;;;;;;1999.90;999.90;;;;;;;10.99;100.00;97829.34;4972898;28;20046;-81
2023/04/30 01:48:26;;;;;;;1999.90;999.90;;;;;;;11.00;100.00;97836.41;5043059;28;20018;-83
2023/04/30 01:51:00;;;;;;;1999.90;999.90;;;;;;;10.86;100.00;97832.84;5030731;28;20036;-82
2023/04/30 01:53:40;;;;;;;1999.90;999.90;;;;;;;10.79;100.00;97818.75;5034833;28;20536;-84
2023/04/30 01:56:10;;;;;;;1999.90;999.90;;;;;;;10.91;100.00;97827.28;5034834;28;20482;-84
2023/04/30 01:58:37;;;;;;;1999.90;999.90;;;;;;;10.91;100.00;97827.28;5033742;28;20057;-82
2023/04/30 02:01:02;;;;;;;1999.90;999.90;;;;;;;10.81;100.00;97820.06;5033257;28;20078;-82
2023/04/30 02:03:28;;;;;;;1999.90;999.90;;;;;;;10.84;100.00;97826.88;5015068;28;20124;-80
2023/04/30 02:05:54;;;;;;;1999.90;999.90;;;;;;;10.89;100.00;97835.00;5032632;28;21027;-87
2023/04/30 02:08:19;;;;;;;1999.90;999.90;;;;;;;10.82;100.00;97832.63;4998969;28;20022;-84
2023/04/30 02:10:45;;;;;;;1999.90;999.90;;;;;;;10.75;100.00;97826.72;5032657;28;20025;-86
2023/04/30 02:13:10;;;;;;;1999.90;999.90;;;;;;;10.85;100.00;97833.97;5015696;28;20034;-85
2023/04/30 02:15:35;;;;;;;1999.90;999.90;;;;;;;10.97;100.00;97847.97;5014935;28;20037;-84
2023/04/30 02:18:01;;;;;;;1999.90;999.90;;;;;;;10.81;100.00;97832.97;5035355;28;20698;-84
2023/04/30 02:20:26;;;;;;;1999.90;999.90;;;;;;;10.74;100.00;97845.06;5033756;28;20474;-83
2023/04/30 02:22:51;;;;;;;1999.90;999.90;;;;;;;10.72;100.00;97850.03;5033611;28;20030;-87
2023/04/30 02:25:17;;;;;;;1999.90;999.90;;;;;;;10.74;100.00;97853.28;5033376;28;20022;-84
2023/04/30 02:27:42;;;;;;;1999.90;999.90;;;;;;;10.60;100.00;97855.16;5033192;28;20108;-83
2023/04/30 02:30:08;;;;;;;1999.90;999.90;;;;;;;10.51;100.00;97840.53;5033462;28;20045;-85
2023/04/30 02:32:33;;;;;;;1999.90;999.90;;;;;;;10.51;100.00;97856.94;5033742;28;20144;-86
2023/04/30 02:34:59;;;;;;;1999.90;999.90;;;;;;;10.32;100.00;97836.19;5038739;28;20085;-84
2023/04/30 02:37:24;;;;;;;1999.90;999.90;;;;;;;10.38;100.00;97851.41;5031514;28;20069;-86
2023/04/30 02:39:50;;;;;;;1999.90;999.90;;;;;;;10.35;100.00;97857.47;5035886;28;20116;-84
2023/04/30 02:42:15;;;;;;;1999.90;999.90;;;;;;;10.46;100.00;97862.47;5038403;28;20036;-85
2023/04/30 02:44:41;;;;;;;1999.90;999.90;;;;;;;10.38;100.00;97843.19;5014824;28;20548;-83
2023/04/30 02:47:06;;;;;;;1999.90;999.90;;;;;;;10.25;100.00;97861.16;5032797;28;20117;-84
2023/04/30 02:49:32;;;;;;;1999.90;999.90;;;;;;;10.14;100.00;97856.97;5032990;28;20025;-84
2023/04/30 02:51:57;;;;;;;1999.90;999.90;;;;;;;10.19;100.00;97852.22;5033022;28;20040;-84
2023/04/30 02:54:23;;;;;;;1999.90;999.90;;;;;;;10.19;100.00;97843.22;5033072;28;20028;-84
2023/04/30 02:56:52;;;;;;;1999.90;999.90;;;;;;;10.23;100.00;97852.44;5034179;28;20159;-83
2023/04/30 02:59:18;;;;;;;1999.90;999.90;;;;;;;10.21;100.00;97849.22;5033150;28;20030;-83
2023/04/30 03:01:43;;;;;;;1999.90;999.90;;;;;;;10.20;100.00;97844.84;5032495;28;20014;-84
2023/04/30 03:04:08;;;;;;;1999.90;999.90;;;;;;;10.14;100.00;97854.22;5047326;28;20037;-83
2023/04/30 03:06:34;;;;;;;1999.90;999.90;;;;;;;10.07;100.00;97859.19;5052386;28;20040;-84
2023/04/30 03:09:00;;;;;;;1999.90;999.90;;;;;;;10.12;100.00;97859.94;5034255;28;20029;-82
2023/04/30 03:11:25;;;;;;;1999.90;999.90;;;;;;;10.03;100.00;97853.50;5051603;28;20029;-82
2023/04/30 03:13:51;;;;;;;1999.90;999.90;;;;;;;10.08;100.00;97860.84;5030190;28;20136;-81
2023/04/30 03:16:18;;;;;;;1999.90;999.90;;;;;;;10.05;100.00;97864.16;5041078;28;20030;-83
2023/04/30 03:18:44;;;;;;;1999.90;999.90;;;;;;;10.04;100.00;97862.53;5031213;28;20048;-82
2023/04/30 03:21:10;;;;;;;1999.90;999.90;;;;;;;9.97;100.00;97856.59;5048319;28;20029;-80
2023/04/30 03:23:35;;;;;;;1999.90;999.90;;;;;;;9.94;100.00;97857.19;5053299;28;20112;-84
2023/04/30 03:26:01;;;;;;;1999.90;999.90;;;;;;;10.06;100.00;97861.13;5056509;28;20025;-85
2023/04/30 03:28:26;;;;;;;1999.90;999.90;;;;;;;10.23;100.00;97854.38;5056810;28;20025;-80
2023/04/30 03:30:51;;;;;;;1999.90;999.90;;;;;;;10.28;100.00;97863.31;5058275;28;20040;-85
2023/04/30 03:33:17;;;;;;;1999.90;999.90;;;;;;;10.18;100.00;97855.25;5042227;28;20029;-83
2023/04/30 03:35:42;;;;;;;1999.90;999.90;;;;;;;10.05;100.00;97853.22;5035568;28;20072;-83
2023/04/30 03:38:08;;;;;;;1999.90;999.90;;;;;;;10.09;100.00;97843.31;5042216;28;20037;-84
2023/04/30 03:40:33;;;;;;;1999.90;999.90;;;;;;;10.06;100.00;97852.09;5056012;28;20120;-86
2023/04/30 03:42:58;;;;;;;1999.90;999.90;;;;;;;9.93;100.00;97847.38;5058585;28;20029;-85
2023/04/30 03:45:24;;;;;;;1999.90;999.90;;;;;;;10.06;100.00;97844.72;5039202;28;20394;-86
2023/04/30 03:47:51;;;;;;;1999.90;999.90;;;;;;;10.12;100.00;97849.00;5057360;28;20036;-85
2023/04/30 03:50:17;;;;;;;1999.90;999.90;;;;;;;10.27;100.00;97861.69;5040094;28;20029;-83
2023/04/30 03:52:42;;;;;;;1999.90;999.90;;;;;;;10.24;100.00;97856.00;5041005;28;20025;-88
2023/04/30 03:55:09;;;;;;;1999.90;999.90;;;;;;;10.35;100.00;97862.94;5042952;28;20031;-86
2023/04/30 03:57:34;;;;;;;1999.90;999.90;;;;;;;10.32;100.00;97871.72;5055979;28;20057;-84
2023/04/30 03:59:59;;;;;;;1999.90;999.90;;;;;;;10.27;100.00;97861.69;5051347;28;20032;-86
2023/04/30 04:02:25;;;;;;;1999.90;999.90;;;;;;;10.18;100.00;97872.47;5059128;28;20033;-85
2023/04/30 04:04:50;;;;;;;1999.90;999.90;;;;;;;10.30;100.00;97874.78;5057507;28;20028;-87
2023/04/30 04:07:16;;;;;;;1999.90;999.90;;;;;;;10.34;100.00;97878.53;5056780;28;20071;-83
2023/04/30 04:09:41;;;;;;;1999.90;999.90;;;;;;;10.27;100.00;97882.75;5061207;28;20420;-84
2023/04/30 04:12:07;;;;;;;1999.90;999.90;;;;;;;10.31;100.00;97873.66;5058335;28;20036;-84
2023/04/30 04:14:32;;;;;;;1999.90;999.90;;;;;;;10.33;100.00;97885.13;5059161;28;20021;-86
2023/04/30 04:16:58;;;;;;;1999.90;999.90;;;;;;;10.40;100.00;97887.47;5059819;28;20028;-87
2023/04/30 04:19:27;;;;;;;1999.90;999.90;;;;;;;10.39;100.00;97900.34;5059951;28;20033;-86
2023/04/30 04:21:53;;;;;;;1999.90;999.90;;;;;;;10.36;100.00;97889.19;5058686;28;20029;-83
2023/04/30 04:24:18;;;;;;;1999.90;999.90;;;;;;;10.37;100.00;97901.75;5058755;28;20031;-85
2023/04/30 04:26:44;;;;;;;1999.90;999.90;;;;;;;10.34;100.00;97911.31;5058737;28;20029;-86
2023/04/30 04:29:11;;;;;;;1999.90;999.90;;;;;;;10.38;100.00;97909.63;5058291;28;20029;-86
2023/04/30 04:31:37;;;;;;;1999.90;999.90;;;;;;;10.48;100.00;97911.41;5040608;28;20029;-86
2023/04/30 04:34:03;;;;;;;1999.90;999.90;;;;;;;10.47;100.00;97910.59;5059126;28;20520;-86
2023/04/30 04:36:29;;;;;;;1999.90;999.90;;;;;;;10.55;100.00;97907.22;5059510;28;20017;-88
2023/04/30 04:39:00;;;;;;;1999.90;999.90;;;;;;;10.63;100.00;97913.91;5056174;28;20025;-85
2023/04/30 04:41:29;;;;;;;1999.90;999.90;;;;;;;10.56;100.00;97910.75;5060064;28;20107;-85
2023/04/30 04:43:55;;;;;;;1999.90;999.90;;;;;;;10.60;100.00;97928.19;5059881;28;20112;-85
2023/04/30 04:46:22;;;;;;;1999.90;999.90;;;;;;;10.61;100.00;97919.69;5061208;28;20492;-85
2023/04/30 04:48:47;;;;;;;1999.90;999.90;;;;;;;10.62;100.00;97940.47;5060419;28;20494;-84
2023/04/30 04:51:13;;;;;;;1999.90;999.90;;;;;;;10.64;100.00;97938.25;5060649;28;20059;-85
2023/04/30 04:53:38;;;;;;;1999.90;999.90;;;;;;;10.77;100.00;97936.69;5060152;28;20028;-84
2023/04/30 04:56:04;;;;;;;1999.90;999.90;;;;;;;10.72;100.00;97943.03;5060434;28;20067;-87
2023/04/30 04:58:30;;;;;;;1999.90;999.90;;;;;;;10.70;100.00;97928.88;5058645;28;20769;-85
2023/04/30 05:00:56;;;;;;;1999.90;999.90;;;;;;;10.95;100.00;97949.53;5058194;28;20059;-81
2023/04/30 05:03:21;;;;;;;1999.90;999.90;;;;;;;10.93;100.00;97934.53;5041083;28;20029;-81
2023/04/30 05:05:47;;;;;;;1999.90;999.90;;;;;;;11.10;100.00;97935.59;5042059;28;20059;-87
2023/04/30 05:08:12;;;;;;;1999.90;999.90;;;;;;;11.23;100.00;97950.47;5060984;28;20029;-86
2023/04/30 05:10:37;;;;;;;1999.90;999.90;;;;;;;11.31;100.00;97949.75;5059230;28;20029;-86
2023/04/30 05:13:02;;;;;;;1999.90;999.90;;;;;;;11.32;100.00;97956.88;5058035;28;20120;-86
2023/04/30 05:15:28;;;;;;;1999.90;999.90;;;;;;;11.34;100.00;97962.84;5040389;28;20120;-87
2023/04/30 05:17:53;;;;;;;1999.90;999.90;;;;;;;11.32;100.00;97959.59;5058426;28;20031;-86
2023/04/30 05:20:19;;;;;;;1999.90;999.90;;;;;;;11.56;100.00;97971.22;5059201;28;20024;-85
2023/04/30 05:22:44;;;;;;;1999.90;999.90;;;;;;;11.59;100.00;97978.06;5064929;28;20111;-84
2023/04/30 05:25:09;;;;;;;1999.90;999.90;;;;;;;11.58;100.00;97969.03;5061556;28;20139;-83
2023/04/30 05:27:35;;;;;;;1999.90;999.90;;;;;;;11.56;100.00;97971.22;5056797;28;20017;-84
2023/04/30 05:30:00;;;;;;;1999.90;999.90;;;;;;;11.58;100.00;97970.94;5053829;28;20033;-81
2023/04/30 05:32:26;;;;;;;1999.90;999.90;;;;;;;11.71;100.00;97973.75;5058199;28;20032;-83
2023/04/30 05:34:52;;;;;;;1999.90;999.90;;;;;;;11.46;100.00;97976.91;5057649;28;20033;-87
2023/04/30 05:37:19;;;;;;;1999.90;999.90;;;;;;;11.85;100.00;97989.38;5057249;28;20040;-84
2023/04/30 05:39:44;;;;;;;1999.90;999.90;;;;;;;11.91;100.00;97994.47;5040723;28;20010;-85
2023/04/30 05:42:10;;;;;;;1999.90;999.90;;;;;;;11.96;100.00;98007.28;5056768;28;20036;-86
2023/04/30 05:44:36;;;;;;;1999.90;999.90;;;;;;;11.94;100.00;97987.56;5053548;28;20022;-80
2023/04/30 05:47:02;;;;;;;1999.90;999.90;;;;;;;11.91;100.00;98001.88;5056863;28;20036;-87
2023/04/30 05:49:27;;;;;;;1999.90;999.90;;;;;;;12.00;100.00;97997.31;5056993;28;20026;-80
2023/04/30 05:51:52;;;;;;;1999.90;999.90;;;;;;;12.13;100.00;97993.75;5039661;28;20048;-85
2023/04/30 05:54:18;;;;;;;1999.90;999.90;;;;;;;12.69;100.00;98007.94;5056343;28;20130;-88
2023/04/30 05:56:43;;;;;;;1999.90;999.90;;;;;;;13.29;100.00;98003.03;5040256;28;20014;-88
2023/04/30 05:59:08;;;;;;;1999.90;999.90;;;;;;;12.92;100.00;98013.50;5054545;28;20056;-83
2023/04/30 06:01:35;;;;;;;1999.90;999.90;;;;;;;13.45;100.00;98002.66;5068544;28;20024;-83
2023/04/30 06:04:00;;;;;;;1999.90;999.90;;;;;;;13.61;100.00;98018.47;5058215;28;20016;-84
2023/04/30 06:06:26;;;;;;;1999.90;999.90;;;;;;;13.99;100.00;98001.53;5052452;28;20067;-86
2023/04/30 06:08:52;;;;;;;1999.90;999.90;;;;;;;14.48;100.00;98015.84;5070871;28;20017;-81
2023/04/30 06:11:18;;;;;;;1999.90;999.90;;;;;;;14.65;100.00;98026.09;5057177;28;20065;-81
2023/04/30 06:13:47;;;;;;;1999.90;999.90;;;;;;;14.74;100.00;98021.44;5052106;28;20084;-82
2023/04/30 06:16:12;;;;;;;1999.90;999.90;;;;;;;15.11;100.00;98019.22;5055083;28;20533;-85
2023/04/30 06:18:38;;;;;;;1999.90;999.90;;;;;;;15.34;100.00;98021.50;5042598;28;20055;-86
2023/04/30 06:21:03;;;;;;;1999.90;999.90;;;;;;;15.54;100.00;98022.78;5049609;28;20029;-86
2023/04/30 06:23:28;;;;;;;1999.90;999.90;;;;;;;15.79;100.00;98034.94;5064574;28;20021;-85
2023/04/30 06:25:54;;;;;;;1999.90;999.90;;;;;;;14.77;100.00;98031.81;5038597;28;20398;-84
2023/04/30 06:28:20;;;;;;;1999.90;999.90;;;;;;;15.30;100.00;98019.69;5045739;28;20155;-84
2023/04/30 06:30:46;;;;;;;1999.90;999.90;;;;;;;16.52;100.00;98048.38;5045982;28;20057;-85
2023/04/30 06:33:11;;;;;;;1999.90;999.90;;;;;;;16.80;100.00;98051.50;5038852;28;20026;-87
2023/04/30 06:35:37;;;;;;;1999.90;999.90;;;;;;;16.97;100.00;98050.59;5052988;28;20032;-84
2023/04/30 06:38:02;;;;;;;1999.90;999.90;;;;;;;15.67;100.00;98032.84;5056189;28;20136;-84
2023/04/30 06:40:28;;;;;;;1999.90;999.90;;;;;;;16.43;100.00;98057.81;5050064;28;20025;-84
2023/04/30 06:42:53;;;;;;;1999.90;999.90;;;;;;;17.50;100.00;98056.25;5040819;28;20048;-84
2023/04/30 06:45:19;;;;;;;1999.90;999.90;;;;;;;16.69;100.00;98057.75;5021667;28;20025;-87
2023/04/30 06:47:45;;;;;;;1999.90;999.90;;;;;;;15.92;100.00;98062.34;5039072;28;20104;-79
2023/04/30 06:50:11;;;;;;;1999.90;999.90;;;;;;;16.22;100.00;98056.94;5012323;28;20123;-75
2023/04/30 06:52:36;;;;;;;1999.90;999.90;;;;;;;16.08;100.00;98062.63;5029648;28;20065;-76
2023/04/30 06:55:02;;;;;;;1999.90;999.90;;;;;;;16.89;100.00;98070.78;5031873;28;20849;-75
2023/04/30 06:57:27;;;;;;;1999.90;999.90;;;;;;;16.22;100.00;98070.72;5049847;28;20529;-77
2023/04/30 06:59:53;;;;;;;1999.90;999.90;;;;;;;15.89;100.00;98068.50;5031404;28;20044;-76
2023/04/30 07:02:18;;;;;;;1999.90;999.90;;;;;;;15.44;100.00;98079.03;5050306;28;20493;-75
2023/04/30 07:04:43;;;;;;;1999.90;999.90;;;;;;;15.85;100.00;98077.78;5031969;28;20477;-75
2023/04/30 07:07:09;;;;;;;1999.90;999.90;;;;;;;15.77;100.00;98079.41;5016908;28;20033;-75
2023/04/30 07:09:35;;;;;;;1999.90;999.90;;;;;;;15.65;100.00;98073.75;5043674;28;20033;-75
2023/04/30 07:12:01;;;;;;;1999.90;999.90;;;;;;;16.11;100.00;98080.47;5023783;28;20429;-76
2023/04/30 07:14:26;;;;;;;1999.90;999.90;;;;;;;16.24;100.00;98079.47;5025739;28;20030;-77
2023/04/30 07:16:52;;;;;;;1999.90;999.90;;;;;;;15.68;100.00;98072.28;5033173;28;20055;-75
2023/04/30 07:19:19;;;;;;;1999.90;999.90;;;;;;;16.36;100.00;98071.31;5034826;28;20033;-76
2023/04/30 07:21:44;;;;;;;1999.90;999.90;;;;;;;16.68;100.00;98073.50;5054105;28;20105;-76
2023/04/30 07:24:10;;;;;;;1999.90;999.90;;;;;;;16.57;100.00;98083.31;5072833;28;20056;-76
2023/04/30 07:26:35;;;;;;;1999.90;999.90;;;;;;;17.41;100.00;98074.88;5072751;28;20029;-75
2023/04/30 07:29:02;;;;;;;1999.90;999.90;;;;;;;16.61;100.00;98078.72;5073251;28;20033;-75
2023/04/30 07:31:28;;;;;;;1999.90;999.90;;;;;;;17.58;100.00;98073.94;5050073;28;20029;-75
2023/04/30 07:33:54;;;;;;;1999.90;999.90;;;;;;;17.70;100.00;98076.75;5041803;28;20021;-75
2023/04/30 07:36:20;;;;;;;1999.90;999.90;;;;;;;17.52;100.00;98084.38;5042465;28;20029;-75
2023/04/30 07:38:45;;;;;;;1999.90;999.90;;;;;;;17.07;100.00;98078.66;5038471;28;20025;-75
2023/04/30 07:41:11;;;;;;;1999.90;999.90;;;;;;;17.30;100.00;98079.16;5036609;28;20116;-75
2023/04/30 07:43:36;;;;;;;1999.90;999.90;;;;;;;17.23;100.00;98081.63;5036261;28;20025;-74
2023/04/30 07:46:02;;;;;;;1999.90;999.90;;;;;;;17.98;100.00;98083.34;5038431;28;20026;-82
2023/04/30 07:48:28;;;;;;;1999.90;999.90;;;;;;;18.13;100.00;98085.47;5057354;28;20021;-85
2023/04/30 07:50:54;;;;;;;1999.90;999.90;;;;;;;16.99;100.00;98081.47;5047518;28;20036;-80
2023/04/30 07:53:19;;;;;;;1999.90;999.90;;;;;;;16.68;100.00;98078.22;5038491;28;20035;-84
2023/04/30 07:55:45;;;;;;;1999.90;999.90;;;;;;;16.90;100.00;98078.75;5038560;28;20021;-80
2023/04/30 07:58:10;;;;;;;1999.90;999.90;;;;;;;17.77;100.00;98093.63;5054596;28;20378;-74
2023/04/30 08:00:36;;;;;;;1999.90;999.90;;;;;;;17.55;100.00;98077.38;5034804;28;20104;-75
2023/04/30 08:03:01;;;;;;;1999.90;999.90;;;;;;;18.35;100.00;98092.59;5051859;28;20449;-75
2023/04/30 08:05:26;;;;;;;1999.90;999.90;;;;;;;18.38;100.00;98089.13;5034021;28;20031;-75
2023/04/30 08:07:52;;;;;;;1999.90;999.90;;;;;;;18.24;100.00;98079.50;5046570;28;20032;-75
2023/04/30 08:10:17;;;;;;;1999.90;999.90;;;;;;;19.26;100.00;98085.75;5051552;28;20410;-78
2023/04/30 08:12:43;;;;;;;1999.90;999.90;;;;;;;23.07;85.33;98091.41;5051588;28;20025;-75
2023/04/30 08:15:08;;;;;;;1999.90;999.90;;;;;;;23.42;74.76;98091.19;5051125;28;20025;-75
2023/04/30 08:17:34;;;;;;;1999.90;999.90;;;;;;;25.71;63.34;98076.06;5049404;28;20024;-77
2023/04/30 08:20:02;;;;;;;1999.90;999.90;;;;;;;26.37;58.08;98102.03;5040855;28;20056;-77
2023/04/30 08:22:28;;;;;;;1999.90;999.90;;;;;;;25.76;55.13;98094.50;5048456;28;20364;-80
2023/04/30 08:24:54;;;;;;;1999.90;999.90;;;;;;;22.65;64.62;98096.22;5029758;28;20104;-76
2023/04/30 08:27:20;;;;;;;1999.90;999.90;;;;;;;21.03;72.41;98085.97;5039330;28;20025;-76
2023/04/30 08:29:46;;;;;;;1999.90;999.90;;;;;;;20.66;74.15;98074.31;5041605;28;20037;-80
2023/04/30 08:32:11;;;;;;;1999.90;999.90;;;;;;;18.55;86.31;98079.81;5030740;28;20036;-77
2023/04/30 08:34:36;;;;;;;1999.90;999.90;;;;;;;19.41;80.73;98078.69;5046507;28;20025;-75
2023/04/30 08:37:02;;;;;;;1999.90;999.90;;;;;;;19.23;79.62;98094.75;5036300;28;20048;-76
2023/04/30 08:39:27;;;;;;;1999.90;999.90;;;;;;;20.12;75.32;98081.56;5039679;28;20033;-82
2023/04/30 08:42:01;;;;;;;1999.90;999.90;;;;;;;20.52;71.09;98096.19;5030509;28;20072;-84
2023/04/30 08:44:27;;;;;;;1999.90;999.90;;;;;;;20.51;72.02;98079.88;5021918;28;20032;-77
2023/04/30 08:46:53;;;;;;;1999.90;999.90;;;;;;;20.40;66.57;98059.31;5018429;28;20179;-79
2023/04/30 08:49:22;;;;;;;1999.90;999.90;;;;;;;20.69;67.15;98081.94;5023370;28;20040;-81
2023/04/30 08:51:48;;;;;;;1999.90;999.90;;;;;;;20.21;68.16;98094.13;5045316;28;20048;-78
2023/04/30 08:54:13;;;;;;;1999.90;999.90;;;;;;;19.50;72.39;98082.13;5042128;28;20033;-77
2023/04/30 08:56:40;;;;;;;1999.90;999.90;;;;;;;19.58;73.08;98083.94;5045223;28;20024;-75
2023/04/30 08:59:06;;;;;;;1999.90;999.90;;;;;;;19.41;71.79;98081.47;5038875;28;20082;-77
2023/04/30 09:01:33;;;;;;;1999.90;999.90;;;;;;;19.29;75.61;98089.78;5038175;28;20036;-75
2023/04/30 09:03:59;;;;;;;1999.90;999.90;;;;;;;18.08;80.91;98088.44;5050271;28;20040;-74
2023/04/30 09:06:24;;;;;;;1999.90;999.90;;;;;;;18.12;83.44;98085.81;5027792;28;20025;-74
2023/04/30 09:08:51;;;;;;;1999.90;999.90;;;;;;;17.96;84.06;98085.63;5044821;28;20070;-74
2023/04/30 09:11:27;;;;;;;1999.90;999.90;;;;;;;17.31;84.33;98082.72;5049867;28;20556;-75
2023/04/30 09:14:00;;;;;;;1999.90;999.90;;;;;;;17.21;86.81;98086.69;5050506;28;20044;-76
2023/04/30 09:16:31;;;;;;;1999.90;999.90;;;;;;;17.45;84.76;98086.03;5033927;28;20044;-76
2023/04/30 09:18:57;;;;;;;1999.90;999.90;;;;;;;17.64;84.11;98094.72;5025733;28;20106;-75
2023/04/30 09:21:34;;;;;;;1999.90;999.90;;;;;;;17.36;86.21;98082.53;5037776;28;20079;-76
2023/04/30 09:24:02;;;;;;;1999.90;999.90;;;;;;;17.03;88.50;98091.53;5052115;28;20033;-74
2023/04/30 09:26:33;;;;;;;1999.90;999.90;;;;;;;16.85;89.89;98084.47;5037687;28;20028;-75
2023/04/30 09:28:59;;;;;;;1999.90;999.90;;;;;;;16.91;89.17;98083.16;5030542;28;20120;-75
2023/04/30 09:31:25;;;;;;;1999.90;999.90;;;;;;;17.18;87.08;98089.31;5041304;28;20390;-76
2023/04/30 09:33:52;;;;;;;1999.90;999.90;;;;;;;17.14;87.33;98080.88;5034571;28;20025;-76
2023/04/30 09:36:19;;;;;;;1999.90;999.90;;;;;;;17.17;85.18;98082.16;5023526;28;20017;-78
2023/04/30 09:38:44;;;;;;;1999.90;999.90;;;;;;;18.01;82.31;98077.13;5038597;28;20037;-79
2023/04/30 09:41:25;;;;;;;1999.90;999.90;;;;;;;18.59;75.95;98073.25;5025521;28;20033;-78
2023/04/30 09:43:51;;;;;;;1999.90;999.90;;;;;;;18.89;74.84;98076.63;5040872;28;20107;-74
2023/04/30 09:46:21;;;;;;;1999.90;999.90;;;;;;;17.85;78.18;98078.91;5037127;28;20451;-74
2023/04/30 09:48:56;;;;;;;1999.90;999.90;;;;;;;18.07;77.02;98064.69;5036916;28;20538;-74
2023/04/30 09:51:22;;;;;;;1999.90;999.90;;;;;;;18.26;75.49;98066.94;5049765;28;20494;-75
2023/04/30 09:53:49;;;;;;;1999.90;999.90;;;;;;;18.28;75.15;98069.34;5036849;28;20105;-75
2023/04/30 09:56:20;;;;;;;1999.90;999.90;;;;;;;18.37;74.23;98061.75;5047434;28;20102;-74
2023/04/30 09:58:50;;;;;;;1999.90;999.90;;;;;;;18.03;74.40;98065.72;5021376;28;20028;-75
2023/04/30 10:01:16;;;;;;;1999.90;999.90;;;;;;;18.23;73.65;98058.50;5042195;28;20025;-74
2023/04/30 10:03:42;;;;;;;1999.90;999.90;;;;;;;17.96;72.78;98057.97;5048598;28;20478;-74
2023/04/30 10:06:12;;;;;;;1999.90;999.90;;;;;;;18.04;73.49;98051.50;5036778;28;20421;-74
2023/04/30 10:08:42;;;;;;;1999.90;999.90;;;;;;;18.02;73.85;98053.81;5043512;28;20022;-75
2023/04/30 10:11:15;;;;;;;1999.90;999.90;;;;;;;18.03;73.92;98063.75;5049166;28;20564;-74
2023/04/30 10:13:45;;;;;;;1999.90;999.90;;;;;;;20.39;64.41;98058.53;5032933;28;20036;-73
2023/04/30 10:16:18;;;;;;;1999.90;999.90;;;;;;;21.11;59.31;98054.38;5025146;28;20489;-73
2023/04/30 10:18:45;;;;;;;1999.90;999.90;;;;;;;22.67;53.56;98061.25;5048988;28;20063;-74
2023/04/30 10:21:13;;;;;;;1999.90;999.90;;;;;;;22.07;53.44;98051.75;5036799;28;20028;-74
2023/04/30 10:23:40;;;;;;;1999.90;999.90;;;;;;;22.15;54.86;98050.69;5048686;28;20040;-75
2023/04/30 10:26:07;;;;;;;1999.90;999.90;;;;;;;21.54;56.75;98041.44;5036717;28;20074;-75
2023/04/30 10:28:33;;;;;;;1999.90;999.90;;;;;;;21.20;56.46;98038.34;5028015;28;20056;-74
2023/04/30 10:30:59;;;;;;;1999.90;999.90;;;;;;;21.35;55.97;98045.00;5033872;28;20513;-74
2023/04/30 10:33:41;;;;;;;1999.90;999.90;;;;;;;19.46;66.93;98017.38;5040099;28;20021;-74
2023/04/30 10:36:13;;;;;;;1999.90;999.90;;;;;;;18.36;70.28;98018.59;5042838;28;20082;-74
2023/04/30 10:38:38;;;;;;;1999.90;999.90;;;;;;;18.60;67.85;98008.38;5041882;28;20577;-73
2023/04/30 10:41:06;;;;;;;1999.90;999.90;;;;;;;18.08;71.22;98015.66;5052077;28;20067;-75
2023/04/30 10:43:32;;;;;;;1999.90;999.90;;;;;;;17.77;73.97;98009.78;5043606;28;20021;-74
2023/04/30 10:45:57;;;;;;;1999.90;999.90;;;;;;;18.34;69.60;98018.13;5025741;28;20544;-74
2023/04/30 10:48:24;;;;;;;1999.90;999.90;;;;;;;19.06;68.20;98020.94;5048559;28;20123;-76
2023/04/30 10:50:58;;;;;;;1999.90;999.90;;;;;;;18.97;66.01;98020.25;5022149;28;20378;-75